createdAt,value
2019-05-20T03:42:23.759Z,25.83
2019-05-20T03:44:53.092Z,23.30
2019-05-20T03:47:23.436Z,22.90
2019-05-20T03:49:52.690Z,25.50
2019-05-20T03:52:22.258Z,26.40
2019-05-20T03:54:52.195Z,24.93
2019-05-20T03:57:24.582Z,25.73
2019-05-20T03:59:53.780Z,24.90
2019-05-20T04:02:25.869Z,24.47
2019-05-20T04:05:02.013Z,25.80
2019-05-20T04:07:26.320Z,25.67
2019-05-20T04:09:56.158Z,23.10
2019-05-20T04:12:26.246Z,23.00
2019-05-20T04:14:55.590Z,24.07
2019-05-20T04:17:27.402Z,23.97
2019-05-20T04:19:57.025Z,23.80
2019-05-20T04:22:26.303Z,24.10
2019-05-20T04:24:55.562Z,23.60
2019-05-20T04:27:25.198Z,22.63
2019-05-20T04:29:55.509Z,22.17
2019-05-20T04:32:26.718Z,25.13
2019-05-20T04:34:55.868Z,23.20
2019-05-20T04:37:25.189Z,23.17
2019-05-20T04:39:54.409Z,23.03
2019-05-20T04:42:24.705Z,23.47
2019-05-20T04:44:56.139Z,23.00
2019-05-20T04:47:24.955Z,22.60
2019-05-20T04:49:54.408Z,25.57
2019-05-20T04:52:23.649Z,26.17
2019-05-20T04:54:53.043Z,24.63
2019-05-20T04:57:22.285Z,23.67
2019-05-20T04:59:53.976Z,24.27
2019-05-20T05:02:23.272Z,23.60
2019-05-20T05:04:52.783Z,23.10
2019-05-20T05:07:22.326Z,24.67
2019-05-20T05:09:51.636Z,25.43
2019-05-20T05:12:21.191Z,28.03
2019-05-20T05:14:50.698Z,24.53
2019-05-20T05:17:20.156Z,24.10
2019-05-20T05:19:50.959Z,24.53
2019-05-20T05:22:20.255Z,20.27
2019-05-20T05:24:50.755Z,16.50
2019-05-20T05:27:19.939Z,20.43
2019-05-20T05:29:49.208Z,19.83
2019-05-20T05:32:37.415Z,22.90
2019-05-20T05:35:07.121Z,20.57
2019-05-20T05:37:36.335Z,20.20
2019-05-20T05:40:08.306Z,19.97
2019-05-20T05:42:37.854Z,24.93
2019-05-20T05:45:07.906Z,22.87
2019-05-20T05:47:40.088Z,23.27
2019-05-20T05:50:09.914Z,23.83
2019-05-20T05:52:39.066Z,25.43
2019-05-20T05:55:11.710Z,24.63
2019-05-20T05:57:43.030Z,31.17
2019-05-20T06:02:48.300Z,27.33
2019-05-20T06:05:17.700Z,28.73
2019-05-20T06:07:47.022Z,29.13
2019-05-20T06:10:16.759Z,29.53
2019-05-20T06:12:45.968Z,31.90
2019-05-20T06:15:16.148Z,33.67
2019-05-20T06:17:45.311Z,29.90
2019-05-20T06:20:15.660Z,31.27
2019-05-20T06:22:45.583Z,30.90
2019-05-20T06:25:15.702Z,31.73
2019-05-20T06:27:44.936Z,29.03
2019-05-20T06:30:15.048Z,30.50
2019-05-20T06:32:44.831Z,29.67
2019-05-20T06:35:14.410Z,31.17
2019-05-20T06:37:47.312Z,30.23
2019-05-20T06:40:20.399Z,30.97
2019-05-20T06:42:52.066Z,28.90
2019-05-20T06:45:21.740Z,30.53
2019-05-20T06:47:50.905Z,26.40
2019-05-20T06:50:20.379Z,27.33
2019-05-20T06:52:50.550Z,27.37
2019-05-20T06:55:20.179Z,27.30
2019-05-20T06:57:49.502Z,26.80
2019-05-20T07:00:34.192Z,27.40
2019-05-20T07:03:03.785Z,25.40
2019-05-20T07:05:33.143Z,24.47
2019-05-20T07:08:02.425Z,27.63
2019-05-20T07:10:32.701Z,25.97
2019-05-20T07:13:01.997Z,25.47
2019-05-20T07:15:31.274Z,26.20
2019-05-20T07:18:00.715Z,25.23
2019-05-20T07:20:49.151Z,23.80
2019-05-20T07:23:19.966Z,23.73
2019-05-20T07:25:49.251Z,25.43
2019-05-20T07:28:20.847Z,22.90
2019-05-20T07:30:50.186Z,22.03
2019-05-20T07:33:19.898Z,22.10
2019-05-20T07:35:49.506Z,23.30
2019-05-20T07:38:18.806Z,23.07
2019-05-20T07:40:48.045Z,23.63
2019-05-20T07:43:17.329Z,23.67
2019-05-20T07:45:47.413Z,22.37
2019-05-20T07:48:17.990Z,22.53
2019-05-20T07:50:49.329Z,24.03
2019-05-20T07:53:20.199Z,21.50
2019-05-20T07:56:00.696Z,21.17
2019-05-20T07:58:33.764Z,21.87
2019-05-20T08:01:11.351Z,24.30
2019-05-20T08:03:45.172Z,20.40
2019-05-20T08:06:16.158Z,19.60
2019-05-20T08:08:46.972Z,19.83
2019-05-20T08:11:16.262Z,20.87
2019-05-20T08:13:45.629Z,20.53
2019-05-20T08:16:15.062Z,23.37
2019-05-20T08:18:44.444Z,22.17
2019-05-20T08:21:13.662Z,21.57
2019-05-20T08:23:43.681Z,21.10
2019-05-20T08:26:12.987Z,22.00
2019-05-20T08:28:42.309Z,20.13
2019-05-20T08:31:11.849Z,21.60
2019-05-20T08:33:41.178Z,22.57
2019-05-20T08:36:14.025Z,22.60
2019-05-20T08:38:43.549Z,21.50
2019-05-20T08:41:12.911Z,19.97
2019-05-20T08:43:42.139Z,19.50
2019-05-20T08:46:11.387Z,21.00
2019-05-20T08:48:40.695Z,19.60
2019-05-20T08:51:09.960Z,19.57
2019-05-20T08:53:39.155Z,19.60
2019-05-20T08:56:09.751Z,23.07
2019-05-20T08:58:39.045Z,21.63
2019-05-20T09:01:09.700Z,20.80
2019-05-20T09:03:39.274Z,21.97
2019-05-20T09:06:08.510Z,21.90
2019-05-20T09:08:37.845Z,23.40
2019-05-20T09:11:08.668Z,21.53
2019-05-20T09:13:37.922Z,21.50
2019-05-20T09:16:07.241Z,21.90
2019-05-20T09:18:36.520Z,20.43
2019-05-20T09:21:05.804Z,21.67
2019-05-20T09:23:35.128Z,22.07
2019-05-20T09:26:04.638Z,21.20
2019-05-20T09:28:34.214Z,22.20
2019-05-20T09:31:03.594Z,22.80
2019-05-20T09:33:33.172Z,22.07
2019-05-20T09:36:06.547Z,22.67
2019-05-20T09:38:37.105Z,22.80
2019-05-20T09:41:10.649Z,22.63
2019-05-20T09:43:39.972Z,21.97
2019-05-20T09:46:09.260Z,24.53
2019-05-20T09:48:40.905Z,23.60
2019-05-20T09:51:10.550Z,25.03
2019-05-20T09:53:41.851Z,23.10
2019-05-20T09:56:11.266Z,24.40
2019-05-20T09:58:40.580Z,21.67
2019-05-20T10:01:09.836Z,22.43
2019-05-20T10:03:42.840Z,23.17
2019-05-20T10:06:12.118Z,27.70
2019-05-20T10:08:45.017Z,26.47
2019-05-20T10:11:14.193Z,25.00
2019-05-20T10:13:47.108Z,24.27
2019-05-20T10:16:16.416Z,24.30
2019-05-20T10:18:45.734Z,24.37
2019-05-20T10:21:15.012Z,23.47
2019-05-20T10:23:44.321Z,24.63
2019-05-20T10:26:13.532Z,23.77
2019-05-20T10:28:46.820Z,25.30
2019-05-20T10:31:15.727Z,24.63
2019-05-20T10:33:45.010Z,25.30
2019-05-20T10:36:16.271Z,24.23
2019-05-20T10:38:57.304Z,24.43
2019-05-20T10:41:17.422Z,25.63
2019-05-20T10:43:47.108Z,19.90
2019-05-20T10:46:16.279Z,20.10
2019-05-20T10:48:45.898Z,21.93
2019-05-20T10:51:15.057Z,19.50
2019-05-20T10:53:44.229Z,23.77
2019-05-20T10:56:17.811Z,25.73
2019-05-20T10:58:47.092Z,24.47
2019-05-20T11:01:16.434Z,25.87
2019-05-20T11:03:48.053Z,25.10
2019-05-20T11:06:21.108Z,24.57
2019-05-20T11:08:50.389Z,25.90
2019-05-20T11:11:19.687Z,24.50
2019-05-20T11:13:48.905Z,25.67
2019-05-20T11:16:18.385Z,25.67
2019-05-20T11:18:48.167Z,25.03
2019-05-20T11:21:17.387Z,27.33
2019-05-20T11:23:49.468Z,27.93
2019-05-20T11:26:18.681Z,26.53
2019-05-20T11:28:50.480Z,26.43
2019-05-20T11:31:19.662Z,24.50
2019-05-20T11:33:49.002Z,24.43
2019-05-20T11:36:18.962Z,24.20
2019-05-20T11:38:48.252Z,26.43
2019-05-20T11:41:17.551Z,23.63
2019-05-20T11:43:46.762Z,24.27
2019-05-20T11:46:17.192Z,24.63
2019-05-20T11:48:47.206Z,13.37
2019-05-20T11:51:16.496Z,12.90
2019-05-20T11:53:48.644Z,12.53
2019-05-20T11:56:17.820Z,11.53
2019-05-20T11:58:47.030Z,12.33
2019-05-20T12:01:16.320Z,12.50
2019-05-20T12:03:45.838Z,10.83
2019-05-20T12:06:15.855Z,11.93
2019-05-20T12:08:45.201Z,13.27
2019-05-20T12:11:14.470Z,13.17
2019-05-20T12:13:43.705Z,14.40
2019-05-20T12:16:13.054Z,13.93
2019-05-20T12:18:45.232Z,16.10
2019-05-20T12:21:14.858Z,13.87
2019-05-20T12:23:44.124Z,12.10
2019-05-20T12:26:16.178Z,10.20
2019-05-20T12:28:45.530Z,11.37
2019-05-20T12:31:14.934Z,11.80
2019-05-20T12:33:45.339Z,10.73
2019-05-20T12:36:14.674Z,9.67
2019-05-20T12:38:44.000Z,9.77
2019-05-20T12:41:13.218Z,8.80
2019-05-20T12:43:44.994Z,10.20
2019-05-20T12:46:13.438Z,8.13
2019-05-20T12:48:42.665Z,11.33
2019-05-20T12:51:14.536Z,10.50
2019-05-20T12:53:44.783Z,10.53
2019-05-20T12:56:14.091Z,10.33
2019-05-20T12:58:43.380Z,11.00
2019-05-20T13:01:12.859Z,13.27
2019-05-20T13:03:44.399Z,11.90
2019-05-20T13:06:13.957Z,18.23
2019-05-20T13:08:43.292Z,14.77
2019-05-20T13:11:12.756Z,17.70
2019-05-20T13:13:41.968Z,22.63
2019-05-20T13:16:12.841Z,20.03
2019-05-20T13:18:54.902Z,18.57
2019-05-20T13:21:13.232Z,18.60
2019-05-20T13:23:42.687Z,18.87
2019-05-20T13:26:11.904Z,17.73
2019-05-20T13:28:41.312Z,20.43
2019-05-20T13:31:11.272Z,17.47
2019-05-20T13:33:42.041Z,15.47
2019-05-20T13:36:14.960Z,14.57
2019-05-20T13:38:44.091Z,14.93
2019-05-20T13:41:13.419Z,16.13
2019-05-20T13:43:42.948Z,17.97
2019-05-20T13:46:12.804Z,16.73
2019-05-20T13:48:42.185Z,15.60
2019-05-20T13:51:12.062Z,17.63
2019-05-20T13:53:41.567Z,14.70
2019-05-20T13:56:10.747Z,16.90
2019-05-20T13:58:40.051Z,16.93
2019-05-20T14:01:09.207Z,13.30
2019-05-20T14:03:38.532Z,13.83
2019-05-20T14:06:08.765Z,12.50
2019-05-20T14:08:37.952Z,13.83
2019-05-20T14:11:07.381Z,13.67
2019-05-20T14:13:36.566Z,13.13
2019-05-20T14:16:05.865Z,13.50
2019-05-20T14:18:38.330Z,13.77
2019-05-20T14:21:07.620Z,11.27
2019-05-20T14:23:36.870Z,11.90
2019-05-20T14:26:06.088Z,10.60
2019-05-20T14:28:35.578Z,11.53
2019-05-20T14:31:06.069Z,9.07
2019-05-20T14:33:35.867Z,9.17
2019-05-20T14:36:05.304Z,9.37
2019-05-20T14:38:39.612Z,9.70
2019-05-20T14:41:20.849Z,9.63
2019-05-20T14:43:39.837Z,8.40
2019-05-20T14:46:09.395Z,11.00
2019-05-20T14:48:39.048Z,9.40
2019-05-20T14:51:08.339Z,12.00
2019-05-20T14:53:37.534Z,12.37
2019-05-20T14:56:06.875Z,12.27
2019-05-20T14:58:36.118Z,14.00
2019-05-20T15:01:05.348Z,11.27
2019-05-20T15:03:34.695Z,11.27
2019-05-20T15:06:06.035Z,12.07
2019-05-20T15:08:35.385Z,13.87
2019-05-20T15:11:05.100Z,15.80
2019-05-20T15:13:34.453Z,14.83
2019-05-20T15:16:03.777Z,16.40
2019-05-20T15:18:36.552Z,14.17
2019-05-20T15:21:06.028Z,15.40
2019-05-20T15:23:35.691Z,17.57
2019-05-20T15:26:04.989Z,16.07
2019-05-20T15:28:34.285Z,12.47
2019-05-20T15:31:03.566Z,13.13
2019-05-20T15:33:32.837Z,11.73
2019-05-20T15:36:02.114Z,13.07
2019-05-20T15:38:31.781Z,12.73
2019-05-20T15:41:01.185Z,13.03
2019-05-20T15:43:30.439Z,10.33
2019-05-20T15:46:00.354Z,9.93
2019-05-20T15:48:35.520Z,9.70
2019-05-20T15:51:04.709Z,9.03
2019-05-20T15:53:34.042Z,10.97
2019-05-20T15:56:03.369Z,11.07
2019-05-20T15:58:32.674Z,9.90
2019-05-20T16:01:04.522Z,10.73
2019-05-20T16:03:33.961Z,10.07
2019-05-20T16:06:05.981Z,9.97
2019-05-20T16:08:35.913Z,10.93
2019-05-20T16:11:06.938Z,10.70
2019-05-20T16:13:36.817Z,11.73
2019-05-20T16:16:13.137Z,15.47
2019-05-20T16:18:42.520Z,12.67
2019-05-20T16:21:11.731Z,12.33
2019-05-20T16:23:41.058Z,11.07
2019-05-20T16:26:10.338Z,9.67
2019-05-20T16:28:39.585Z,12.70
2019-05-20T16:31:09.164Z,10.67
2019-05-20T16:33:38.501Z,10.90
2019-05-20T16:36:07.864Z,11.90
2019-05-20T16:38:37.258Z,11.80
2019-05-20T16:41:07.043Z,12.83
2019-05-20T16:43:36.366Z,12.60
2019-05-20T16:46:07.441Z,13.57
2019-05-20T16:48:36.858Z,12.70
2019-05-20T16:51:06.063Z,12.00
2019-05-20T16:53:35.401Z,13.70
2019-05-20T16:56:05.114Z,12.20
2019-05-20T16:58:34.423Z,13.43
2019-05-20T17:01:06.413Z,13.47
2019-05-20T17:03:35.711Z,14.77
2019-05-20T17:06:04.986Z,14.90
2019-05-20T17:08:34.230Z,13.87
2019-05-20T17:11:03.654Z,15.43
2019-05-20T17:13:32.932Z,15.70
2019-05-20T17:16:02.233Z,17.67
2019-05-20T17:18:32.055Z,11.93
2019-05-20T17:21:01.343Z,15.87
2019-05-20T17:23:33.094Z,12.93
2019-05-20T17:26:02.567Z,12.00
2019-05-20T17:28:31.891Z,10.70
2019-05-20T17:31:01.066Z,12.80
2019-05-20T17:33:30.564Z,15.27
2019-05-20T17:36:00.934Z,14.43
2019-05-20T17:38:30.232Z,15.63
2019-05-20T17:40:59.792Z,19.07
2019-05-20T17:43:29.105Z,22.53
2019-05-20T17:45:58.425Z,23.63
2019-05-20T17:48:28.177Z,27.80
2019-05-20T17:50:57.808Z,29.13
2019-05-20T17:53:27.027Z,29.93
2019-05-20T17:55:56.244Z,33.30
2019-05-20T17:58:25.563Z,31.67
2019-05-20T18:00:54.860Z,31.10
2019-05-20T18:03:25.722Z,33.33
2019-05-20T18:05:55.147Z,38.53
2019-05-20T18:08:26.723Z,34.30
2019-05-20T18:10:56.204Z,30.77
2019-05-20T18:13:25.556Z,33.27
2019-05-20T18:15:54.928Z,31.10
2019-05-20T18:18:24.118Z,33.20
2019-05-20T18:20:56.405Z,31.93
2019-05-20T18:23:24.506Z,34.17
2019-05-20T18:25:54.177Z,33.37
2019-05-20T18:28:23.511Z,35.37
2019-05-20T18:30:52.826Z,35.47
2019-05-20T18:33:22.756Z,33.93
2019-05-20T18:35:52.017Z,37.10
2019-05-20T18:38:21.427Z,36.10
2019-05-20T18:40:51.161Z,38.60
2019-05-20T18:43:20.645Z,34.17
2019-05-20T18:45:49.956Z,40.27
2019-05-20T18:48:22.130Z,36.47
2019-05-20T18:50:51.497Z,41.87
2019-05-20T18:53:20.828Z,35.80
2019-05-20T18:55:50.102Z,30.40
2019-05-20T18:58:20.712Z,35.10
2019-05-20T19:00:50.016Z,29.23
2019-05-20T19:03:20.043Z,29.17
2019-05-20T19:05:49.967Z,24.53
2019-05-20T19:08:19.665Z,22.33
2019-05-20T19:10:51.678Z,28.60
2019-05-20T19:13:21.377Z,21.77
2019-05-20T19:15:50.659Z,19.53
2019-05-20T19:18:21.004Z,18.00
2019-05-20T19:20:50.378Z,17.07
2019-05-20T19:23:21.336Z,22.27
2019-05-20T19:25:50.659Z,20.77
2019-05-20T19:28:22.305Z,23.03
2019-05-20T19:30:53.739Z,27.33
2019-05-20T19:33:23.039Z,29.57
2019-05-20T19:35:52.285Z,33.27
2019-05-20T19:38:23.482Z,36.43
2019-05-20T19:40:52.852Z,37.90
2019-05-20T19:43:22.172Z,37.50
2019-05-20T19:45:51.492Z,36.13
2019-05-20T19:48:20.839Z,33.60
2019-05-20T19:50:51.419Z,29.17
2019-05-20T19:53:22.115Z,30.53
2019-05-20T19:55:54.990Z,27.33
2019-05-20T19:58:24.267Z,23.37
2019-05-20T20:00:56.686Z,24.03
2019-05-20T20:03:25.726Z,23.83
2019-05-20T20:05:55.516Z,28.77
2019-05-20T20:08:24.918Z,23.80
2019-05-20T20:10:54.595Z,20.27
2019-05-20T20:13:23.841Z,19.67
2019-05-20T20:15:55.558Z,15.47
2019-05-20T20:18:24.825Z,13.33
2019-05-20T20:20:54.144Z,12.17
2019-05-20T20:23:23.454Z,14.10
2019-05-20T20:25:52.740Z,17.53
2019-05-20T20:28:21.999Z,15.97
2019-05-20T20:30:53.081Z,16.97
2019-05-20T20:33:22.418Z,18.20
2019-05-20T20:35:51.636Z,17.57
2019-05-20T20:38:20.889Z,13.57
2019-05-20T20:40:50.067Z,15.10
2019-05-20T20:43:21.815Z,16.07
2019-05-20T20:45:50.997Z,11.33
2019-05-20T20:48:20.294Z,13.40
2019-05-20T20:50:52.537Z,10.80
2019-05-20T20:53:21.764Z,12.47
2019-05-20T20:55:51.042Z,12.37
2019-05-20T20:58:21.773Z,11.73
2019-05-20T21:00:51.200Z,13.23
2019-05-20T21:03:20.470Z,10.70
2019-05-20T21:05:49.744Z,11.60
2019-05-20T21:08:19.469Z,11.23
2019-05-20T21:10:49.010Z,12.20
2019-05-20T21:13:19.493Z,12.33
2019-05-20T21:15:48.753Z,11.87
2019-05-20T21:18:18.056Z,12.83
2019-05-20T21:20:47.306Z,13.03
2019-05-20T21:23:16.594Z,12.50
2019-05-20T21:25:45.850Z,11.37
2019-05-20T21:28:15.170Z,12.27
2019-05-20T21:30:44.649Z,11.20
2019-05-20T21:33:14.123Z,9.27
2019-05-20T21:35:45.300Z,7.23
2019-05-20T21:38:14.421Z,7.27
2019-05-20T21:40:43.616Z,9.20
2019-05-20T21:43:12.819Z,8.33
2019-05-20T21:45:42.005Z,9.43
2019-05-20T21:48:11.199Z,7.50
2019-05-20T21:50:47.414Z,7.47
2019-05-20T21:53:16.662Z,8.50
2019-05-20T21:55:45.894Z,7.53
2019-05-20T21:58:15.193Z,7.60
